Time;durP1;ratioP1;P1;durP2;ratioP2;P2;SDS_P1;SDS_P2;PMS_P1;PMS_P2;Temp;Humidity;BMP_temperature;BMP_pressure;BME280_temperature;BME280_humidity;BME280_pressure;Samples;Min_cycle;Max_cycle;Signal;HPM_P1;HPM_P2
2023/08/08 00:02:05;;;;;;;3.40;3.10;;;14.70;86.80;;;14.35;76.39;97966.56;4941257;29;20529;-86
2023/08/08 00:04:33;;;;;;;3.80;3.50;;;14.60;87.90;;;14.30;78.93;97997.16;4941203;29;20459;-84
2023/08/08 00:07:00;;;;;;;3.20;3.00;;;14.40;88.90;;;14.38;76.44;97995.97;4944439;29;21278;-83
2023/08/08 00:09:28;;;;;;;3.83;3.43;;;14.60;87.40;;;14.83;71.76;97988.16;4947201;29;20469;-82
2023/08/08 00:11:57;;;;;;;4.13;3.00;;;15.00;86.50;;;15.38;73.28;97999.41;4948457;29;20521;-81
2023/08/08 00:14:25;;;;;;;4.77;3.50;;;15.20;87.70;;;14.92;74.21;97978.50;4940864;28;20567;-81
2023/08/08 00:16:52;;;;;;;6.10;3.03;;;15.20;86.60;;;14.08;74.38;97985.28;4946600;29;20476;-83
2023/08/08 00:19:19;;;;;;;3.40;3.10;;;14.60;85.00;;;13.87;74.22;97998.41;4943605;28;20465;-81
2023/08/08 00:21:46;;;;;;;4.00;3.13;;;14.40;85.20;;;13.85;77.20;97979.63;4939665;29;20492;-82
2023/08/08 00:24:14;;;;;;;4.60;3.67;;;14.20;86.50;;;13.90;77.28;97986.25;4938168;28;20458;-81
2023/08/08 00:26:41;;;;;;;3.70;2.93;;;14.20;86.30;;;14.06;74.13;97985.53;4949371;29;20469;-81
2023/08/08 00:29:10;;;;;;;5.30;3.60;;;14.30;86.30;;;13.53;76.50;97917.56;4935117;29;20462;-79
2023/08/08 00:31:38;;;;;;;5.53;3.07;;;14.30;86.10;;;13.92;73.80;97989.56;4933548;28;20543;-82
2023/08/08 00:34:06;;;;;;;4.80;3.63;;;14.20;85.40;;;13.64;74.24;97982.97;4943781;29;20969;-81
2023/08/08 00:36:34;;;;;;;4.00;3.13;;;14.00;85.40;;;13.39;76.26;97992.13;4936226;29;20981;-80
2023/08/08 00:39:02;;;;;;;4.63;3.23;;;13.70;86.00;;;12.97;77.72;97946.88;4955500;28;20469;-81
2023/08/08 00:41:29;;;;;;;3.73;3.40;;;13.50;86.80;;;13.14;78.44;97982.31;4932515;28;21765;-81
2023/08/08 00:43:56;;;;;;;3.50;3.20;;;13.40;87.70;;;13.02;77.50;97976.84;4946846;28;20454;-81
2023/08/08 00:46:25;;;;;;;5.73;3.57;;;13.30;87.50;;;13.04;77.49;97975.56;4944616;29;20520;-80
2023/08/08 00:48:53;;;;;;;4.60;3.53;;;13.40;87.10;;;12.53;78.77;97892.94;4941035;29;20950;-81
2023/08/08 00:51:21;;;;;;;3.90;3.20;;;13.40;88.70;;;13.00;77.22;97974.38;4946142;29;20461;-78
2023/08/08 00:53:50;;;;;;;3.53;3.23;;;13.40;86.80;;;12.71;77.93;97971.47;4940180;29;20499;-80
2023/08/08 00:56:18;;;;;;;3.40;3.10;;;13.30;86.60;;;12.88;78.13;97973.50;4958196;28;20455;-79
2023/08/08 00:58:46;;;;;;;4.10;3.10;;;13.20;87.90;;;12.79;77.93;97974.88;4952625;28;20468;-79
2023/08/08 01:01:14;;;;;;;3.27;2.97;;;13.20;87.20;;;12.68;78.55;97954.81;4943481;29;20479;-82
2023/08/08 01:03:43;;;;;;;4.87;3.27;;;13.30;87.40;;;12.89;78.43;97983.31;4949442;28;20464;-81
2023/08/08 01:06:17;;;;;;;3.50;2.80;;;13.30;87.00;;;13.06;77.78;97979.91;4944260;29;20515;-81
2023/08/08 01:08:54;;;;;;;3.73;3.23;;;13.50;86.70;;;13.03;77.06;97978.50;4941474;28;20451;-79
2023/08/08 01:11:21;;;;;;;3.20;3.00;;;13.40;86.60;;;12.96;77.87;97977.78;4947728;29;20457;-83
2023/08/08 01:13:49;;;;;;;5.93;3.10;;;13.40;86.50;;;12.41;80.37;97901.84;4941064;29;20491;-78
2023/08/08 01:16:18;;;;;;;3.13;2.83;;;13.30;87.40;;;13.02;77.08;97972.25;4945359;29;20471;-79
2023/08/08 01:18:48;;;;;;;3.00;2.70;;;13.40;86.90;;;13.01;76.88;97976.03;4944305;29;20493;-80
2023/08/08 01:21:17;;;;;;;4.17;2.60;;;13.30;86.80;;;12.99;76.84;97970.00;4949425;29;20457;-80
2023/08/08 01:23:49;;;;;;;3.30;3.00;;;13.20;86.70;;;12.79;79.21;97936.94;4940090;28;20500;-78
2023/08/08 01:26:18;;;;;;;2.53;2.33;;;13.30;88.40;;;12.90;78.57;97965.97;4946129;28;20470;-81
2023/08/08 01:28:45;;;;;;;2.53;2.33;;;13.30;87.50;;;12.68;77.92;97957.53;4962477;28;20966;-80
2023/08/08 01:31:13;;;;;;;3.17;2.87;;;13.20;86.80;;;12.85;77.80;97960.44;4951622;28;20479;-80
2023/08/08 01:33:42;;;;;;;2.83;2.50;;;13.20;87.20;;;12.88;77.25;97960.75;4948392;29;20471;-81
2023/08/08 01:36:23;;;;;;;3.00;2.70;;;13.20;86.80;;;12.86;77.31;97962.88;4943045;29;20477;-78
2023/08/08 01:38:53;;;;;;;2.47;2.27;;;13.20;86.70;;;12.49;76.88;97908.81;4945576;29;20462;-81
2023/08/08 01:41:24;;;;;;;2.50;2.30;;;13.20;86.70;;;12.82;77.21;97953.56;4943103;29;20476;-79
2023/08/08 01:43:51;;;;;;;4.73;2.60;;;13.10;86.70;;;12.99;78.54;97961.88;4943111;28;20472;-78
2023/08/08 01:46:19;;;;;;;2.57;2.40;;;13.20;87.70;;;12.91;77.70;97966.81;4941852;29;20461;-78
2023/08/08 01:48:47;;;;;;;2.30;2.10;;;13.20;87.20;;;12.93;76.88;97956.56;4937344;29;20969;-79
2023/08/08 01:51:15;;;;;;;2.27;2.07;;;13.20;86.80;;;12.86;77.20;97957.47;4940907;29;20524;-80
2023/08/08 01:53:44;;;;;;;2.77;2.57;;;13.20;86.80;;;12.83;77.84;97959.84;4946376;29;20559;-80
2023/08/08 01:56:11;;;;;;;2.00;1.90;;;13.10;87.20;;;12.86;77.24;97967.50;4946828;29;20453;-78
2023/08/08 01:58:40;;;;;;;2.90;2.57;;;13.10;86.90;;;12.88;77.23;97960.75;4944962;29;20563;-80
2023/08/08 02:01:07;;;;;;;2.40;2.20;;;13.10;86.70;;;12.67;76.86;97943.16;4949837;28;20469;-79
2023/08/08 02:03:34;;;;;;;8.20;2.70;;;13.00;86.70;;;12.60;77.72;97937.00;4941123;29;20957;-80
2023/08/08 02:06:02;;;;;;;2.43;2.23;;;13.00;87.10;;;12.48;77.79;97931.56;4947351;29;20469;-79
2023/08/08 02:08:29;;;;;;;2.63;2.43;;;12.90;87.10;;;12.54;78.26;97948.78;4943072;29;21363;-78
2023/08/08 02:10:56;;;;;;;2.67;2.47;;;12.80;87.40;;;12.52;78.31;97940.88;4940379;29;21009;-79
2023/08/08 02:13:24;;;;;;;4.00;2.10;;;12.80;87.50;;;12.45;78.60;97940.97;4947488;29;20483;-80
2023/08/08 02:15:52;;;;;;;2.53;2.33;;;12.80;87.50;;;12.50;78.72;97963.81;4942982;29;20471;-80
2023/08/08 02:18:20;;;;;;;3.90;2.20;;;12.70;87.70;;;12.44;79.43;97957.47;4950087;28;21116;-80
2023/08/08 02:20:48;;;;;;;2.47;2.27;;;12.70;88.30;;;12.43;79.33;97967.47;4949272;29;20625;-78
2023/08/08 02:23:15;;;;;;;5.33;1.77;;;12.60;88.60;;;12.39;79.25;97963.56;4947490;28;20464;-81
2023/08/08 02:25:42;;;;;;;2.13;1.90;;;12.60;88.20;;;12.47;79.72;97963.22;4948598;28;20455;-77
2023/08/08 02:28:10;;;;;;;2.20;1.97;;;12.70;88.90;;;12.50;79.30;97961.94;4946788;29;20985;-78
2023/08/08 02:30:37;;;;;;;3.20;2.13;;;12.70;88.50;;;12.22;81.01;97940.88;4940598;29;20462;-82
2023/08/08 02:33:06;;;;;;;2.17;1.80;;;12.60;88.50;;;11.76;79.25;97873.50;4947933;28;20494;-79
2023/08/08 02:35:33;;;;;;;2.33;1.67;;;12.60;88.70;;;12.29;79.83;97963.25;4937935;29;20484;-80
2023/08/08 02:38:01;;;;;;;2.10;2.00;;;12.50;89.20;;;12.26;78.93;97964.53;4946534;28;20462;-80
2023/08/08 02:40:28;;;;;;;1.63;1.53;;;12.50;88.30;;;12.08;79.27;97946.44;4952253;29;20464;-79
2023/08/08 02:42:57;;;;;;;2.27;2.17;;;12.40;88.30;;;12.33;82.13;97969.88;4944981;29;20474;-78
2023/08/08 02:45:25;;;;;;;3.17;2.40;;;12.40;90.30;;;12.23;80.00;97969.59;4949516;29;20451;-81
2023/08/08 02:47:52;;;;;;;2.60;1.90;;;12.50;89.40;;;12.24;79.90;97977.47;4952939;28;20501;-79
2023/08/08 02:50:20;;;;;;;2.10;1.90;;;12.50;89.40;;;12.15;80.56;97968.03;4951067;28;20461;-80
2023/08/08 02:52:48;;;;;;;2.40;1.80;;;12.40;89.40;;;12.16;79.89;97975.09;4963115;28;20468;-79
2023/08/08 02:55:16;;;;;;;2.13;1.93;;;12.40;89.50;;;12.26;79.68;97958.31;4938838;29;20476;-79
2023/08/08 02:57:43;;;;;;;3.83;2.20;;;12.40;89.40;;;12.29;79.03;97960.56;4943121;29;20508;-81
2023/08/08 03:00:12;;;;;;;2.27;2.10;;;12.50;88.70;;;12.26;79.23;97963.72;4949726;28;20519;-80
2023/08/08 03:02:39;;;;;;;2.10;1.90;;;12.50;88.60;;;12.24;79.59;97968.56;4939257;29;20476;-79
2023/08/08 03:05:08;;;;;;;2.53;2.07;;;12.50;88.90;;;11.72;79.35;97869.56;4947283;29;20468;-79
2023/08/08 03:07:37;;;;;;;1.80;1.70;;;12.50;88.80;;;12.38;79.49;97967.31;4950979;29;20461;-78
2023/08/08 03:10:06;;;;;;;2.00;1.70;;;12.60;89.10;;;12.56;81.97;97962.91;4947922;29;20989;-83
2023/08/08 03:12:33;;;;;;;1.90;1.80;;;12.70;90.00;;;12.77;81.07;97948.03;4970204;28;20457;-80
2023/08/08 03:15:00;;;;;;;1.97;1.80;;;13.00;90.60;;;12.70;79.78;97934.56;4954284;29;21001;-80
2023/08/08 03:17:27;;;;;;;2.10;1.87;;;13.00;89.40;;;12.78;82.52;97944.25;4946742;28;21191;-80
2023/08/08 03:19:54;;;;;;;1.90;1.80;;;13.10;90.50;;;12.81;81.73;97935.66;4946665;28;20457;-81
2023/08/08 03:22:22;;;;;;;1.63;1.53;;;13.30;90.80;;;12.83;80.51;97947.09;4963427;28;20476;-80
2023/08/08 03:24:50;;;;;;;1.33;1.23;;;13.30;90.10;;;12.79;80.82;97939.66;4950837;28;20465;-79
2023/08/08 03:27:18;;;;;;;1.90;1.80;;;13.20;90.00;;;12.47;81.79;97944.25;4943581;29;20482;-80
2023/08/08 03:29:45;;;;;;;2.37;1.40;;;13.00;90.00;;;12.55;82.23;97940.41;4942242;29;20460;-79
2023/08/08 03:32:13;;;;;;;2.10;1.80;;;13.00;90.40;;;12.62;82.83;97948.44;4951448;28;20567;-81
2023/08/08 03:34:40;;;;;;;2.60;1.90;;;13.00;91.00;;;12.73;83.28;97958.50;4937853;29;20477;-80
2023/08/08 03:37:07;;;;;;;5.07;1.77;;;13.00;91.60;;;12.89;84.34;97942.63;4941974;28;20462;-80
2023/08/08 03:39:34;;;;;;;1.73;1.63;;;13.20;92.20;;;13.06;85.74;97955.50;4938377;29;20466;-79
2023/08/08 03:42:03;;;;;;;1.70;1.60;;;13.20;92.50;;;12.90;82.71;97952.41;4927076;29;20477;-80
2023/08/08 03:44:31;;;;;;;5.40;2.10;;;13.30;90.90;;;12.95;84.86;97954.44;4949941;28;20488;-80
2023/08/08 03:46:58;;;;;;;2.60;2.00;;;13.30;91.80;;;12.63;84.21;97941.97;4963455;28;20456;-79
2023/08/08 03:49:26;;;;;;;2.37;1.80;;;13.10;91.60;;;12.37;84.89;97925.03;4942773;29;20461;-78
2023/08/08 03:51:54;;;;;;;3.13;1.90;;;12.90;91.90;;;12.52;86.41;97961.72;4946227;29;20468;-79
2023/08/08 03:54:21;;;;;;;2.60;2.00;;;12.80;93.00;;;12.24;87.59;97961.22;4941691;29;20491;-80
2023/08/08 03:56:48;;;;;;;2.77;1.93;;;12.60;93.50;;;12.09;88.95;97939.13;4949399;28;20465;-78
2023/08/08 03:59:17;;;;;;;2.43;2.23;;;12.60;94.50;;;12.10;88.91;97967.88;4950941;29;20445;-78
2023/08/08 04:01:44;;;;;;;1.90;1.80;;;12.40;95.00;;;12.08;89.89;97962.69;4938210;28;20469;-80
2023/08/08 04:04:11;;;;;;;2.80;1.90;;;12.40;95.60;;;11.99;90.94;97958.59;4940508;28;20906;-82
2023/08/08 04:06:39;;;;;;;2.27;2.07;;;12.40;96.20;;;11.85;90.84;97958.75;4944183;29;20467;-79
2023/08/08 04:09:06;;;;;;;2.53;2.33;;;12.30;96.20;;;11.76;91.81;97943.88;4944290;29;20453;-80
2023/08/08 04:11:35;;;;;;;3.57;2.43;;;12.20;96.90;;;11.90;91.35;97961.63;4950376;29;20465;-78
2023/08/08 04:14:02;;;;;;;2.67;2.03;;;12.30;97.20;;;11.94;91.50;97970.09;4944870;29;20629;-79
2023/08/08 04:16:31;;;;;;;2.83;2.63;;;12.30;97.30;;;11.93;91.97;97970.34;4950373;28;20469;-78
2023/08/08 04:18:59;;;;;;;2.60;2.40;;;12.20;97.40;;;11.96;92.18;97961.75;4936775;29;20809;-80
2023/08/08 04:21:28;;;;;;;2.97;2.33;;;12.30;98.20;;;11.81;92.54;97962.97;4941176;28;20483;-80
2023/08/08 04:23:55;;;;;;;2.63;2.30;;;12.20;97.40;;;11.86;92.82;97959.59;4941398;28;20472;-79
2023/08/08 04:26:24;;;;;;;3.30;2.70;;;12.30;98.10;;;12.49;91.84;97970.28;4928130;29;21146;-79
2023/08/08 04:28:51;;;;;;;3.57;3.10;;;12.60;99.00;;;13.35;87.18;97970.06;4943253;28;20472;-80
2023/08/08 04:31:18;;;;;;;3.87;2.80;;;13.30;96.50;;;13.47;85.44;97970.09;4946492;28;20450;-81
2023/08/08 04:33:47;;;;;;;7.20;2.70;;;13.50;94.00;;;13.31;82.77;97969.72;4944946;29;20497;-79
2023/08/08 04:36:15;;;;;;;3.60;3.30;;;13.70;91.50;;;12.91;84.89;97940.50;4957300;28;20511;-80
2023/08/08 04:38:42;;;;;;;4.60;2.40;;;13.50;92.10;;;13.23;84.35;97966.50;4969478;28;20560;-84
2023/08/08 04:41:09;;;;;;;3.70;2.60;;;13.40;92.10;;;12.94;85.88;97966.34;4960985;29;20476;-83
2023/08/08 04:43:36;;;;;;;3.10;2.80;;;13.30;92.20;;;13.30;82.92;97957.19;4960926;29;20474;-85
2023/08/08 04:46:03;;;;;;;3.40;2.83;;;13.60;91.70;;;13.94;79.63;97971.94;4962716;28;20476;-81
2023/08/08 04:48:32;;;;;;;3.03;2.30;;;14.10;90.70;;;14.54;76.16;97966.38;4953705;29;20474;-82
2023/08/08 04:51:00;;;;;;;2.27;2.07;;;15.00;87.60;;;13.96;78.12;97963.56;4956777;29;20443;-83
2023/08/08 04:53:28;;;;;;;7.50;2.53;;;14.90;86.80;;;13.73;79.32;97891.97;4959606;29;20460;-85
2023/08/08 04:55:55;;;;;;;7.20;2.57;;;14.70;88.10;;;14.38;76.14;97911.72;4960554;29;20491;-81
2023/08/08 04:58:23;;;;;;;2.30;2.10;;;15.30;86.90;;;14.97;72.22;97926.09;4966932;29;20501;-80
2023/08/08 05:00:50;;;;;;;3.13;2.80;;;15.80;84.80;;;14.59;75.35;97963.75;4963160;28;20515;-82
2023/08/08 05:03:18;;;;;;;3.07;2.50;;;15.40;84.80;;;14.30;74.65;97931.09;4954774;28;21005;-81
2023/08/08 05:05:45;;;;;;;2.83;2.30;;;15.20;85.20;;;14.89;75.09;97954.53;4945177;29;20457;-79
2023/08/08 05:08:14;;;;;;;4.27;3.03;;;15.40;85.80;;;15.58;70.18;97956.19;4953404;29;20555;-81
2023/08/08 05:10:41;;;;;;;4.33;2.80;;;16.40;83.10;;;16.16;67.18;97948.81;4956162;29;20507;-82
2023/08/08 05:13:10;;;;;;;2.27;2.07;;;16.90;81.60;;;16.88;64.76;97951.50;4959547;29;20535;-81
2023/08/08 05:15:37;;;;;;;5.83;3.10;;;17.50;80.30;;;16.64;64.18;97911.72;4953075;29;20478;-82
2023/08/08 05:18:05;;;;;;;4.37;2.97;;;18.10;78.50;;;17.31;63.10;97957.06;4947176;29;20455;-83
2023/08/08 05:20:33;;;;;;;7.67;2.17;;;18.50;77.70;;;17.80;62.90;97956.84;4953018;29;20461;-82
2023/08/08 05:23:00;;;;;;;3.80;3.17;;;18.60;77.40;;;17.75;61.03;97962.28;4947194;28;20468;-84
2023/08/08 05:25:29;;;;;;;2.80;2.10;;;18.90;75.50;;;17.67;61.23;97968.28;4944092;28;20505;-83
2023/08/08 05:27:56;;;;;;;2.77;2.40;;;18.90;75.00;;;18.01;59.58;97956.97;4947615;29;20466;-82
2023/08/08 05:30:23;;;;;;;4.73;2.27;;;19.00;74.60;;;17.98;59.78;97961.06;4943718;29;20605;-83
2023/08/08 05:32:51;;;;;;;6.53;2.30;;;18.80;74.50;;;18.08;58.70;97962.25;4945975;29;20474;-86
2023/08/08 05:35:18;;;;;;;2.60;2.40;;;19.00;73.70;;;17.12;62.04;97933.72;4947531;28;20556;-84
2023/08/08 05:37:46;;;;;;;2.40;2.20;;;18.60;74.10;;;19.05;56.74;97949.13;4949015;29;20553;-84
2023/08/08 05:40:13;;;;;;;3.77;2.47;;;19.50;73.80;;;17.74;60.12;97957.91;4949159;29;20463;-83
2023/08/08 05:42:41;;;;;;;3.17;2.67;;;19.00;72.80;;;17.88;59.95;97952.00;4951140;29;20863;-82
2023/08/08 05:45:10;;;;;;;3.87;2.70;;;18.70;73.60;;;17.87;58.73;97964.00;4948669;29;20465;-85
2023/08/08 05:47:37;;;;;;;2.57;2.37;;;18.80;72.30;;;17.30;60.48;97961.72;4938567;29;20550;-81
2023/08/08 05:50:05;;;;;;;2.80;2.60;;;18.70;72.50;;;17.07;61.03;97946.53;4942218;29;20998;-81
2023/08/08 05:52:32;;;;;;;4.43;2.50;;;18.50;72.60;;;17.04;61.33;97956.03;4946082;29;20460;-83
2023/08/08 05:55:00;;;;;;;2.00;1.90;;;18.40;72.70;;;17.56;60.11;97949.06;4943481;28;20489;-85
2023/08/08 05:57:27;;;;;;;2.20;2.00;;;18.40;73.10;;;17.17;59.86;97913.03;4947330;28;20502;-84
2023/08/08 05:59:56;;;;;;;2.43;2.23;;;18.70;72.10;;;17.33;60.29;97938.50;4948757;29;20473;-87
2023/08/08 06:02:23;;;;;;;4.57;1.90;;;18.80;72.10;;;17.89;59.63;97959.91;4946548;29;20485;-85
2023/08/08 06:04:51;;;;;;;2.00;1.80;;;19.10;72.10;;;18.35;56.85;97921.06;4958043;28;20467;-82
2023/08/08 06:07:19;;;;;;;2.87;2.40;;;19.80;70.60;;;18.36;57.20;97950.03;4945751;29;20458;-81
2023/08/08 06:09:49;;;;;;;2.43;2.10;;;19.70;70.40;;;17.23;58.88;97874.59;4947230;28;20526;-82
2023/08/08 06:12:16;;;;;;;1.80;1.70;;;19.00;70.80;;;16.75;62.40;97966.34;4960426;28;20462;-81
2023/08/08 06:14:43;;;;;;;4.60;2.20;;;18.00;72.50;;;16.62;64.11;97962.97;4945663;29;20486;-80
2023/08/08 06:17:12;;;;;;;2.10;1.90;;;17.40;74.10;;;16.08;65.43;97969.16;4946993;29;20467;-80
2023/08/08 06:19:39;;;;;;;2.20;1.70;;;16.90;75.00;;;15.94;65.02;97930.53;4967439;28;20469;-78
2023/08/08 06:22:07;;;;;;;2.07;1.90;;;16.70;75.70;;;15.76;66.71;97970.59;4959982;28;20479;-78
2023/08/08 06:24:34;;;;;;;2.63;2.07;;;16.40;76.50;;;15.67;66.83;97964.75;4948925;29;20519;-78
2023/08/08 06:27:03;;;;;;;2.30;2.10;;;16.20;77.10;;;15.07;68.31;97895.50;4952567;29;20527;-84
2023/08/08 06:29:30;;;;;;;2.90;2.40;;;16.00;77.90;;;15.50;68.23;97948.44;4950994;29;20474;-77
2023/08/08 06:31:58;;;;;;;3.93;2.20;;;15.90;78.70;;;15.06;67.87;97904.75;4960604;29;20458;-83
2023/08/08 06:34:28;;;;;;;2.90;2.17;;;15.80;78.70;;;15.63;67.91;97962.78;4957085;29;20482;-81
2023/08/08 06:36:55;;;;;;;3.10;2.50;;;15.90;79.20;;;15.80;67.63;97957.31;4942896;28;20458;-82
2023/08/08 06:39:22;;;;;;;3.70;2.33;;;16.00;79.50;;;15.28;68.34;97886.59;4955409;29;20466;-80
2023/08/08 06:41:50;;;;;;;2.57;2.20;;;16.10;79.50;;;15.69;68.32;97950.88;4959082;29;20476;-84
2023/08/08 06:44:17;;;;;;;2.67;1.90;;;16.10;79.50;;;15.76;67.87;97934.34;4952947;29;20532;-81
2023/08/08 06:46:44;;;;;;;2.90;1.80;;;16.20;79.60;;;16.00;67.86;97957.59;4940911;29;20502;-79
2023/08/08 06:49:11;;;;;;;2.27;1.90;;;16.30;79.80;;;15.63;68.82;97951.88;4939175;29;21074;-81
2023/08/08 06:51:40;;;;;;;5.40;2.40;;;16.10;80.00;;;15.64;68.54;97942.63;4935985;29;20454;-81
2023/08/08 06:54:07;;;;;;;3.07;1.77;;;16.00;79.80;;;16.00;68.24;97945.91;4944529;29;20466;-82
2023/08/08 06:56:34;;;;;;;2.30;1.80;;;16.20;80.20;;;16.14;67.08;97940.88;4938077;28;20482;-81
2023/08/08 06:59:02;;;;;;;3.70;1.60;;;16.40;79.70;;;15.99;66.95;97944.22;4933096;29;20975;-82
2023/08/08 07:01:29;;;;;;;2.03;1.83;;;16.50;78.80;;;16.50;65.54;97933.09;4965775;28;20437;-83
2023/08/08 07:03:57;;;;;;;4.63;1.70;;;16.70;78.90;;;16.60;64.44;97926.13;4944754;29;20452;-81
2023/08/08 07:06:25;;;;;;;1.80;1.70;;;17.00;78.20;;;16.89;63.88;97939.50;4946930;29;20458;-83
2023/08/08 07:08:54;;;;;;;2.20;2.00;;;17.20;77.70;;;16.97;63.42;97931.66;4949245;29;20469;-84
2023/08/08 07:11:22;;;;;;;3.30;1.97;;;17.30;77.80;;;16.88;63.22;97933.19;4945123;28;20466;-86
2023/08/08 07:13:49;;;;;;;2.10;2.00;;;17.30;77.40;;;16.81;63.14;97922.50;4943850;29;20977;-85
2023/08/08 07:16:16;;;;;;;2.33;2.10;;;17.30;77.20;;;16.65;63.74;97940.63;4939932;28;20995;-81
2023/08/08 07:18:44;;;;;;;2.20;1.70;;;17.20;77.00;;;16.56;64.22;97912.16;4947731;29;21023;-84
2023/08/08 07:21:11;;;;;;;3.83;1.87;;;17.10;77.40;;;16.87;63.45;97931.56;4942542;29;21040;-83
2023/08/08 07:23:40;;;;;;;2.57;2.37;;;17.30;77.10;;;16.76;64.01;97929.84;4944187;28;20462;-82
2023/08/08 07:26:09;;;;;;;1.87;1.77;;;17.20;77.20;;;16.07;64.70;97867.50;4944181;29;20548;-82
2023/08/08 07:28:36;;;;;;;2.03;1.40;;;16.90;77.30;;;16.21;65.42;97913.44;4938833;29;20466;-84
2023/08/08 07:31:03;;;;;;;1.90;1.80;;;16.80;77.60;;;15.94;64.70;97868.72;4945937;28;20468;-82
2023/08/08 07:33:31;;;;;;;3.50;2.10;;;16.80;77.50;;;16.28;64.68;97925.78;4945957;29;20465;-81
2023/08/08 07:35:58;;;;;;;4.47;1.90;;;16.80;77.30;;;16.19;65.56;97923.78;4941523;28;20493;-81
2023/08/08 07:38:25;;;;;;;2.20;2.00;;;16.70;77.70;;;16.36;64.18;97878.16;4936130;29;20545;-81
2023/08/08 07:40:52;;;;;;;2.20;1.73;;;16.90;77.90;;;17.10;62.40;97918.69;4931088;29;20443;-85
2023/08/08 07:43:21;;;;;;;2.07;1.73;;;17.30;76.90;;;16.97;61.65;97862.59;4938170;29;20465;-81
2023/08/08 07:45:48;;;;;;;2.93;1.50;;;17.70;76.80;;;17.45;61.25;97924.69;4956731;28;20571;-82
2023/08/08 07:48:16;;;;;;;2.57;1.60;;;17.80;76.00;;;17.23;62.25;97929.19;4942453;28;20971;-82
2023/08/08 07:50:43;;;;;;;2.90;1.20;;;17.70;76.20;;;17.20;61.43;97921.50;4927438;29;20519;-85
2023/08/08 07:53:10;;;;;;;1.90;1.47;;;17.60;75.70;;;16.81;62.21;97899.88;4941182;29;20511;-83
2023/08/08 07:55:38;;;;;;;3.33;2.33;;;17.40;75.70;;;16.68;62.68;97906.53;4932798;29;20483;-83
2023/08/08 07:58:06;;;;;;;2.13;1.70;;;17.20;75.80;;;16.65;63.20;97912.53;4938101;28;20478;-81
2023/08/08 08:00:35;;;;;;;3.70;1.90;;;17.10;76.10;;;16.80;63.36;97912.66;4940368;28;20494;-84
2023/08/08 08:03:02;;;;;;;1.80;1.40;;;17.10;76.40;;;16.86;62.71;97908.09;4938274;29;20548;-83
2023/08/08 08:05:29;;;;;;;4.60;1.70;;;17.30;76.40;;;17.07;62.08;97916.50;4940353;28;20462;-87
2023/08/08 08:07:57;;;;;;;2.43;1.43;;;17.40;76.20;;;16.97;61.61;97888.00;4967569;28;20465;-85
2023/08/08 08:10:24;;;;;;;3.50;1.80;;;17.50;75.90;;;17.30;60.96;97903.56;4964350;28;20473;-82
2023/08/08 08:12:57;;;;;;;2.23;1.47;;;17.60;75.60;;;17.75;60.40;97910.38;4951370;29;20454;-80
2023/08/08 08:15:25;;;;;;;2.27;2.00;;;17.90;75.60;;;17.61;60.13;97884.63;4956255;29;20487;-84
2023/08/08 08:17:54;;;;;;;1.90;1.70;;;18.00;75.30;;;17.95;58.69;97917.03;4950452;29;20468;-91
2023/08/08 08:20:22;;;;;;;2.53;1.47;;;18.30;74.90;;;18.14;58.69;97900.22;4943100;28;20494;-86
2023/08/08 08:22:49;;;;;;;3.70;1.53;;;18.40;74.50;;;18.51;57.68;97893.75;4951769;29;20460;-87
2023/08/08 08:25:17;;;;;;;1.70;1.60;;;18.70;74.20;;;18.96;56.78;97896.81;4953934;29;20458;-83
2023/08/08 08:27:44;;;;;;;2.23;1.57;;;19.10;73.70;;;18.85;54.53;97895.16;4960954;29;20466;-83
2023/08/08 08:30:14;;;;;;;2.30;1.40;;;19.20;71.00;;;18.87;55.01;97888.31;4960643;28;20465;-81
2023/08/08 08:32:42;;;;;;;1.40;1.30;;;19.30;71.20;;;18.90;54.13;97871.34;4961509;28;20445;-82
2023/08/08 08:35:12;;;;;;;2.50;1.30;;;19.30;70.50;;;18.66;53.66;97871.06;4952512;29;20502;-91
2023/08/08 08:37:39;;;;;;;2.07;1.20;;;19.20;69.20;;;18.97;53.54;97898.47;4978042;28;20463;-86
2023/08/08 08:40:09;;;;;;;1.57;0.93;;;19.30;69.50;;;19.43;51.62;97892.13;4957867;29;20486;-84
2023/08/08 08:42:38;;;;;;;1.23;1.17;;;19.60;68.40;;;19.57;50.28;97911.59;4958126;29;20451;-81
2023/08/08 08:45:08;;;;;;;1.90;1.10;;;19.90;66.50;;;19.20;51.26;97908.06;4939397;29;20465;-84
2023/08/08 08:47:37;;;;;;;1.07;0.90;;;19.60;66.60;;;19.07;52.31;97881.22;4964031;29;20483;-84
2023/08/08 08:50:08;;;;;;;1.30;1.20;;;19.50;67.90;;;19.21;51.59;97893.28;4954039;29;20463;-82
2023/08/08 08:52:38;;;;;;;2.53;1.57;;;19.50;66.80;;;19.29;50.74;97893.81;4951845;28;20455;-91
2023/08/08 08:55:08;;;;;;;1.27;1.17;;;19.60;66.10;;;19.34;51.13;97877.38;4955264;29;20482;-86
2023/08/08 08:57:37;;;;;;;1.43;1.00;;;19.60;66.40;;;19.23;51.29;97830.00;4952002;28;20475;-84
2023/08/08 09:00:06;;;;;;;1.20;1.10;;;19.80;66.80;;;19.62;49.50;97842.22;4950073;28;21354;-82
2023/08/08 09:02:34;;;;;;;1.20;0.90;;;20.10;65.50;;;19.68;49.15;97901.41;4951168;28;20490;-83
2023/08/08 09:05:03;;;;;;;2.10;1.00;;;20.10;64.30;;;19.94;48.45;97893.13;4952351;29;20466;-82
2023/08/08 09:07:33;;;;;;;2.80;1.40;;;20.20;64.00;;;19.77;48.17;97885.22;4938146;29;21059;-84
2023/08/08 09:10:03;;;;;;;2.50;1.50;;;20.30;63.10;;;20.13;46.69;97873.31;4943657;29;20469;-80
2023/08/08 09:12:32;;;;;;;1.10;1.00;;;20.40;62.30;;;19.99;46.34;97868.44;4944324;29;20454;-82
2023/08/08 09:14:59;;;;;;;1.30;1.20;;;20.50;61.50;;;19.75;47.28;97896.44;4938660;28;20466;-80
2023/08/08 09:17:27;;;;;;;1.27;1.07;;;20.20;61.40;;;19.86;47.37;97879.97;4938567;28;20471;-79
2023/08/08 09:19:55;;;;;;;1.20;1.10;;;20.10;61.70;;;19.77;47.88;97842.16;4956701;28;20491;-80
2023/08/08 09:22:23;;;;;;;1.10;1.00;;;20.30;62.30;;;19.53;47.19;97869.38;4937311;28;20473;-80
2023/08/08 09:24:51;;;;;;;1.37;1.00;;;20.00;60.80;;;19.84;48.14;97873.94;4936580;29;20468;-78
2023/08/08 09:27:19;;;;;;;1.33;1.20;;;20.10;62.10;;;19.59;46.73;97831.81;4947549;28;20549;-81
2023/08/08 09:29:49;;;;;;;1.40;0.90;;;20.20;61.00;;;19.34;47.65;97848.06;4948186;29;20509;-81
2023/08/08 09:32:17;;;;;;;1.10;1.00;;;20.00;61.00;;;19.59;46.89;97889.38;4944833;29;20545;-79
2023/08/08 09:34:45;;;;;;;3.43;1.20;;;19.90;59.90;;;19.50;46.55;97869.94;4942644;29;20533;-81
2023/08/08 09:37:14;;;;;;;1.60;1.10;;;20.00;59.70;;;19.23;46.31;97787.00;4943678;29;20990;-80
2023/08/08 09:39:41;;;;;;;1.30;1.10;;;20.10;60.00;;;19.81;46.53;97878.91;4947667;29;20454;-82
2023/08/08 09:42:11;;;;;;;1.20;1.10;;;20.20;60.00;;;19.58;45.53;97869.38;4947292;28;20458;-81
2023/08/08 09:44:40;;;;;;;3.70;1.50;;;20.10;58.50;;;19.60;45.83;97871.81;4941063;29;20457;-78
2023/08/08 09:47:13;;;;;;;1.60;1.17;;;20.00;58.60;;;19.59;46.22;97849.09;4946154;28;20455;-80
2023/08/08 09:49:40;;;;;;;0.80;0.60;;;20.00;59.50;;;18.92;46.26;97784.31;4943301;29;20470;-80
2023/08/08 09:52:08;;;;;;;2.13;0.93;;;19.90;58.70;;;19.51;45.59;97792.97;4942611;29;20479;-79
2023/08/08 09:54:36;;;;;;;1.70;1.10;;;20.10;59.00;;;20.12;45.73;97863.44;4938880;29;20479;-79
2023/08/08 09:57:03;;;;;;;1.20;1.10;;;20.30;59.10;;;20.09;45.64;97867.56;4938644;29;20486;-80
2023/08/08 09:59:31;;;;;;;2.33;1.30;;;20.50;59.00;;;19.84;45.30;97868.47;4948696;28;20540;-81
2023/08/08 10:02:03;;;;;;;1.37;1.07;;;20.30;58.30;;;18.68;45.30;97817.69;4939976;29;20462;-81
2023/08/08 10:04:32;;;;;;;1.50;1.40;;;19.50;56.90;;;19.07;46.03;97878.50;4940905;29;20521;-80
2023/08/08 10:07:00;;;;;;;1.10;1.00;;;19.40;57.80;;;18.59;46.82;97871.34;4959770;29;20456;-79
2023/08/08 10:09:28;;;;;;;3.10;1.13;;;19.20;57.90;;;18.71;46.66;97823.72;4959537;29;20455;-79
2023/08/08 10:11:57;;;;;;;1.17;1.07;;;19.30;58.40;;;19.11;46.72;97882.31;4963098;28;20512;-80
2023/08/08 10:14:31;;;;;;;1.10;1.00;;;19.50;58.40;;;19.22;45.97;97861.22;4967510;28;20439;-79
2023/08/08 10:17:00;;;;;;;2.50;1.17;;;19.60;57.90;;;19.61;45.05;97862.50;4957780;29;20536;-80
2023/08/08 10:19:27;;;;;;;1.30;1.20;;;19.90;57.50;;;19.92;44.96;97856.94;4949105;29;20542;-80
2023/08/08 10:21:59;;;;;;;2.30;0.90;;;20.10;57.60;;;20.48;44.39;97858.59;4941484;28;20467;-84
2023/08/08 10:24:27;;;;;;;1.10;1.03;;;20.60;57.90;;;20.35;43.65;97854.53;4948853;29;20466;-82